地図

経路データ

SID SEASON NUMBER BASIN SUBBASIN NAME ISO_TIME NATURE LAT LON WMO_WIND WMO_PRES WMO_AGENCY TRACK_TYPE DIST2LAND LANDFALL IFLAG USA_AGENCY USA_ATCF_ID USA_LAT USA_LON USA_RECORD USA_STATUS USA_WIND USA_PRES USA_SSHS USA_R34_NE USA_R34_SE USA_R34_SW USA_R34_NW USA_R50_NE USA_R50_SE USA_R50_SW USA_R50_NW USA_R64_NE USA_R64_SE USA_R64_SW USA_R64_NW USA_POCI USA_ROCI USA_RMW USA_EYE TOKYO_LAT TOKYO_LON TOKYO_GRADE TOKYO_WIND TOKYO_PRES TOKYO_R50_DIR TOKYO_R50_LONG TOKYO_R50_SHORT TOKYO_R30_DIR TOKYO_R30_LONG TOKYO_R30_SHORT TOKYO_LAND CMA_LAT CMA_LON CMA_CAT CMA_WIND CMA_PRES HKO_LAT HKO_LON HKO_CAT HKO_WIND HKO_PRES NEWDELHI_LAT NEWDELHI_LON NEWDELHI_GRADE NEWDELHI_WIND NEWDELHI_PRES NEWDELHI_CI NEWDELHI_DP NEWDELHI_POCI REUNION_LAT REUNION_LON REUNION_TYPE REUNION_WIND REUNION_PRES REUNION_TNUM REUNION_CI REUNION_RMW REUNION_R34_NE REUNION_R34_SE REUNION_R34_SW REUNION_R34_NW REUNION_R50_NE REUNION_R50_SE REUNION_R50_SW REUNION_R50_NW REUNION_R64_NE REUNION_R64_SE REUNION_R64_SW REUNION_R64_NW BOM_LAT BOM_LON BOM_TYPE BOM_WIND BOM_PRES BOM_TNUM BOM_CI BOM_RMW BOM_R34_NE BOM_R34_SE BOM_R34_SW BOM_R34_NW BOM_R50_NE BOM_R50_SE BOM_R50_SW BOM_R50_NW BOM_R64_NE BOM_R64_SE BOM_R64_SW BOM_R64_NW BOM_ROCI BOM_POCI BOM_EYE BOM_POS_METHOD BOM_PRES_METHOD NADI_LAT NADI_LON NADI_CAT NADI_WIND NADI_PRES WELLINGTON_LAT WELLINGTON_LON WELLINGTON_WIND WELLINGTON_PRES DS824_LAT DS824_LON DS824_STAGE DS824_WIND DS824_PRES TD9636_LAT TD9636_LON TD9636_STAGE TD9636_WIND TD9636_PRES TD9635_LAT TD9635_LON TD9635_WIND TD9635_PRES TD9635_ROCI NEUMANN_LAT NEUMANN_LON NEUMANN_CLASS NEUMANN_WIND NEUMANN_PRES MLC_LAT MLC_LON MLC_CLASS MLC_WIND MLC_PRES USA_GUST BOM_GUST BOM_GUST_PER REUNION_GUST REUNION_GUST_PER USA_SEAHGT USA_SEARAD_NE USA_SEARAD_SE USA_SEARAD_SW USA_SEARAD_NW STORM_SPEED STORM_DIR
1995225N12124 1995 46 WP MM IRVING 1995-08-13 06:00:00 NR 11.6000 124.000 main 15 11 O_____________ jtwc_wp WP091995 11.6000 124.000 15 -1 8 300
1995225N12124 1995 46 WP MM IRVING 1995-08-13 09:00:00 NR 11.7976 123.655 main 11 10 P_____________ WP091995 11.7976 123.655 15 -1 8 300
1995225N12124 1995 46 WP MM IRVING 1995-08-13 12:00:00 NR 12.0000 123.300 main 11 10 O_____________ jtwc_wp WP091995 12.0000 123.300 15 -1 8 300
1995225N12124 1995 46 WP MM IRVING 1995-08-13 15:00:00 NR 12.2074 122.922 main 32 32 P_____________ WP091995 12.2074 122.922 15 -1 9 297
1995225N12124 1995 46 WP MM IRVING 1995-08-13 18:00:00 NR 12.4000 122.500 main 74 54 O_____________ jtwc_wp WP091995 12.4000 122.500 15 -1 10 293
1995225N12124 1995 46 WP MM IRVING 1995-08-13 21:00:00 NR 12.5724 122.023 main 43 0 P_____________ WP091995 12.5724 122.023 15 -1 10 287
1995225N12124 1995 46 WP MM IRVING 1995-08-14 00:00:00 NR 12.7000 121.500 main 0 0 O_____________ jtwc_wp WP091995 12.7000 121.500 15 -1 11 280
1995225N12124 1995 46 WP MM IRVING 1995-08-14 03:00:00 NR 12.7650 120.942 main 0 0 P_____________ WP091995 12.7650 120.942 15 -1 11 275
1995225N12124 1995 46 WP MM IRVING 1995-08-14 06:00:00 NR 12.8000 120.400 main 43 43 O_____________ jtwc_wp WP091995 12.8000 120.400 15 -1 10 275
1995225N12124 1995 46 WP MM IRVING 1995-08-14 09:00:00 NR 12.8499 119.927 main 78 70 P_____________ WP091995 12.8499 119.927 15 -1 9 277
1995225N12124 1995 46 WP MM IRVING 1995-08-14 12:00:00 NR 12.9000 119.500 main 103 103 O_____________ jtwc_wp WP091995 12.9000 119.500 15 -1 8 277
1995225N12124 1995 46 WP MM IRVING 1995-08-14 15:00:00 NR 12.9499 119.085 main 141 137 P_____________ WP091995 12.9499 119.085 15 -1 8 277
1995225N12124 1995 46 WP MM IRVING 1995-08-14 18:00:00 NR 13.0000 118.700 main 179 179 O_____________ jtwc_wp WP091995 13.0000 118.700 15 -1 7 278
1995225N12124 1995 46 WP MM IRVING 1995-08-14 21:00:00 NR 13.0499 118.335 main 221 219 P_____________ WP091995 13.0499 118.335 15 -1 7 278
1995225N12124 1995 46 WP MM IRVING 1995-08-15 00:00:00 NR 13.1000 118.000 main 251 251 O_____________ jtwc_wp WP091995 13.1000 118.000 15 -1 6 279
1995225N12124 1995 46 WP MM IRVING 1995-08-15 03:00:00 NR 13.1499 117.692 main 280 280 P_____________ WP091995 13.1499 117.692 15 -1 6 280
1995225N12124 1995 46 WP MM IRVING 1995-08-15 06:00:00 NR 13.2000 117.400 main 312 312 O_____________ jtwc_wp WP091995 13.2000 117.400 15 -1 6 280
1995225N12124 1995 46 WP MM IRVING 1995-08-15 09:00:00 NR 13.2500 117.100 main 335 335 P_____________ WP091995 13.2500 117.100 15 -1 6 280
1995225N12124 1995 46 WP MM IRVING 1995-08-15 12:00:00 NR 13.3000 116.800 main 367 367 O_____________ jtwc_wp WP091995 13.3000 116.800 15 -1 6 279
1995225N12124 1995 46 WP MM IRVING 1995-08-15 15:00:00 NR 13.3424 116.507 main 393 393 P_____________ WP091995 13.3424 116.507 15 -1 6 280
1995225N12124 1995 46 WP MM IRVING 1995-08-15 18:00:00 NR 13.4000 116.200 main 426 426 O_____________ jtwc_wp WP091995 13.4000 116.200 15 -1 6 282
1995225N12124 1995 46 WP MM IRVING 1995-08-15 21:00:00 NR 13.4775 115.857 main 459 459 P_____________ WP091995 13.4775 115.857 15 -1 7 286
1995225N12124 1995 46 WP MM IRVING 1995-08-16 00:00:00 NR 13.6000 115.500 main 501 501 O_____________ jtwc_wp WP091995 13.6000 115.500 15 -1 8 294
1995225N12124 1995 46 WP MM IRVING 1995-08-16 03:00:00 NR 13.7775 115.150 main 546 546 P_____________ WP091995 13.7775 115.150 15 -1 8 300
1995225N12124 1995 46 WP MM IRVING 1995-08-16 06:00:00 NR 14.0000 114.800 main 570 560 O_____________ jtwc_wp WP091995 14.0000 114.800 15 -1 8 304
1995225N12124 1995 46 WP MM IRVING 1995-08-16 09:00:00 NR 14.2425 114.442 main 549 522 P_____________ WP091995 14.2425 114.442 15 -1 8 306
1995225N12124 1995 46 WP MM IRVING 1995-08-16 12:00:00 NR 14.5000 114.100 main 522 493 O_____________ jtwc_wp WP091995 14.5000 114.100 15 -1 8 308
1995225N12124 1995 46 WP MM IRVING 1995-08-16 15:00:00 NR 14.7425 113.785 main 493 468 P_____________ WP091995 14.7425 113.785 17 -1 8 311
1995225N12124 1995 46 WP MM IRVING 1995-08-16 18:00:00 NR 15.0000 113.500 main 468 445 O_____________ jtwc_wp WP091995 15.0000 113.500 20 -1 8 316
1995225N12124 1995 46 WP MM IRVING 1995-08-16 21:00:00 NR 15.2925 113.228 main 445 417 P_____________ WP091995 15.2925 113.228 22 -1 8 313
1995225N12124 1995 46 WP MM IRVING 1995-08-17 00:00:00 TS 15.5167 112.917 1008 tokyo main 417 402 OOO___________ jtwc_wp WP091995 15.6000 113.000 25 -1 15.5000 112.900 2 1008 0 0 0 15.2000 112.600 1 23 1002 7 313
1995225N12124 1995 46 WP MM IRVING 1995-08-17 03:00:00 TS 15.7600 112.709 main 405 381 PPP___________ WP091995 15.9000 112.827 27 -1 15.7525 112.755 2 1007 0 0 15.4875 112.428 1 23 1002 6 323
1995225N12124 1995 46 WP MM IRVING 1995-08-17 06:00:00 TS 16.0000 112.545 1006 tokyo main 375 351 OOOO__________ jtwc_wp WP091995 16.2000 112.700 30 -1 16.0000 112.600 2 1006 0 0 0 15.8000 112.300 1 23 1002 15.8000 112.500 TD 30 1002 6 331
1995225N12124 1995 46 WP MM IRVING 1995-08-17 09:00:00 TS 16.2632 112.418 main 342 318 PPPP__________ WP091995 16.5000 112.585 32 -1 16.2425 112.435 2 1005 0 0 16.1500 112.242 1 26 1001 16.0575 112.403 TD 30 1002 6 339
1995225N12124 1995 46 WP MM IRVING 1995-08-17 12:00:00 TS 16.5400 112.327 1004 tokyo main 318 285 OOOO__________ jtwc_wp WP091995 16.8000 112.500 35 0 16.5000 112.300 2 1004 0 0 0 16.5000 112.200 1 29 1000 16.3000 112.300 TD 30 1002 6 343
1995225N12124 1995 46 WP MM IRVING 1995-08-17 15:00:00 TS 16.8012 112.242 main 285 261 PPPP__________ WP091995 17.1075 112.442 35 -1 16.7775 112.235 2 1002 0 0 16.7925 112.100 1 31 999 16.5275 112.192 TD 30 1002 6 346
1995225N12124 1995 46 WP MM IRVING 1995-08-17 18:00:00 TS 17.1000 112.175 35 1000 tokyo main 261 230 OOOO__________ jtwc_wp WP091995 17.4000 112.400 XX 35 -5 17.1000 112.200 3 35 1000 0 9 60 60 0 17.1000 112.000 2 34 998 16.8000 112.100 TD 30 1002 7 349
1995225N12124 1995 46 WP MM IRVING 1995-08-17 21:00:00 TS 17.4587 112.112 main 223 202 PPPP__________ WP091995 17.6575 112.350 XX 37 -5 17.5000 112.143 3 37 998 0 9 70 70 17.5000 111.920 2 34 998 17.1775 112.035 TD 32 1000 7 352
1995225N12124 1995 46 WP MM IRVING 1995-08-18 00:00:00 TS 17.8250 112.075 40 996 tokyo main 202 186 OOOO__________ jtwc_wp WP091995 17.9000 112.300 XX 40 -5 17.9000 112.100 3 40 996 0 9 80 80 0 17.9000 111.900 2 34 998 17.6000 112.000 TS 35 998 7 356
1995225N12124 1995 46 WP MM IRVING 1995-08-18 03:00:00 TS 18.1563 112.080 main 181 171 PPPP__________ WP091995 18.1575 112.250 XX 42 -5 18.2300 112.085 3 42 994 0 9 90 90 18.2225 111.992 2 36 996 18.0150 111.992 TS 37 997 6 2
1995225N12124 1995 46 WP MM IRVING 1995-08-18 06:00:00 TS 18.4500 112.100 45 992 tokyo main 167 153 OOOO__________ jtwc_wp WP091995 18.4000 112.200 XX 45 -5 18.5000 112.100 3 45 992 0 9 100 100 0 18.5000 112.100 2 38 995 18.4000 112.000 TS 40 996 6 5
1995225N12124 1995 46 WP MM IRVING 1995-08-18 09:00:00 TS 18.7081 112.115 main 153 139 PPPP__________ WP091995 18.6075 112.157 XX 47 -5 18.7225 112.165 3 45 991 0 9 100 100 18.7725 112.123 2 38 995 18.7300 112.015 TS 40 996 5 0
1995225N12124 1995 46 WP MM IRVING 1995-08-18 12:00:00 TS 18.9250 112.100 45 990 tokyo main 139 118 OOOO__________ jtwc_wp WP091995 18.8000 112.100 XX 50 -5 18.9000 112.200 3 45 990 0 9 100 100 0 19.0000 112.100 2 38 995 19.0000 112.000 TS 40 996 4 350
1995225N12124 1995 46 WP MM IRVING 1995-08-18 15:00:00 TS 19.1131 112.039 main 118 100 PPPP__________ WP091995 19.0075 112.022 XX 52 -5 19.0575 112.130 3 45 990 0 9 100 100 19.1725 112.072 2 38 995 19.2150 111.930 TS 40 996 4 335
1995225N12124 1995 46 WP MM IRVING 1995-08-18 18:00:00 TS 19.2750 111.925 45 990 tokyo main 100 86 OOOO__________ jtwc_wp WP091995 19.2000 111.900 55 -1 19.2000 112.000 3 45 990 0 9 100 100 0 19.3000 112.000 2 38 995 19.4000 111.800 TS 40 996 4 321
1995225N12124 1995 46 WP MM IRVING 1995-08-18 21:00:00 TS 19.4250 111.771 main 86 62 PPPP__________ WP091995 19.3575 111.722 57 -1 19.3500 111.872 3 45 991 0 9 100 100 19.3925 111.872 2 38 995 19.6000 111.615 TS 40 996 4 312
1995225N12124 1995 46 WP MM IRVING 1995-08-19 00:00:00 TS 19.5750 111.575 45 992 tokyo main 62 43 OOOO__________ jtwc_wp WP091995 19.5000 111.500 60 -1 19.5000 111.700 3 45 992 0 9 100 100 0 19.5000 111.700 2 38 995 19.8000 111.400 TS 40 996 5 309
1995225N12124 1995 46 WP MM IRVING 1995-08-19 03:00:00 TS 19.7387 111.361 main 43 20 PPPP__________ WP091995 19.6500 111.265 60 -1 19.6275 111.465 3 42 994 0 9 90 90 19.6775 111.515 2 38 995 20.0000 111.200 TS 40 996 6 310
1995225N12124 1995 46 WP MM IRVING 1995-08-19 06:00:00 TS 19.9250 111.125 40 996 tokyo main 20 15 OOOO__________ jtwc_wp WP091995 19.8000 111.000 60 -1 19.8000 111.200 3 40 996 0 9 80 80 0 19.9000 111.300 2 38 995 20.2000 111.000 TS 40 996 6 312
1995225N12124 1995 46 WP MM IRVING 1995-08-19 09:00:00 TS 20.1500 110.877 main 15 15 PPPP__________ WP091995 19.9425 110.707 57 -1 20.0925 110.943 3 37 997 0 9 70 70 20.1575 111.058 2 38 993 20.4075 110.800 TS 37 997 7 314
1995225N12124 1995 46 WP MM IRVING 1995-08-19 12:00:00 TS 20.3750 110.625 35 998 tokyo main 15 0 OOOO__________ jtwc_wp WP091995 20.1000 110.400 55 -1 20.4000 110.700 3 35 998 0 9 60 60 0 20.4000 110.800 2 38 992 20.6000 110.600 TS 35 998 6 312
1995225N12124 1995 46 WP MM IRVING 1995-08-19 15:00:00 TS 20.5480 110.400 main 0 0 PPPP__________ WP091995 20.2850 110.092 52 -1 20.6073 110.522 3 35 999 0 9 45 45 20.5498 110.580 2 38 992 20.7499 110.407 TS 32 999 6 307
1995225N12124 1995 46 WP MM IRVING 1995-08-19 18:00:00 TS 20.7133 110.147 35 1000 tokyo main 0 0 OOOO__________ jtwc_wp WP091995 20.5000 109.800 50 -1 20.8000 110.300 3 35 1000 0 9 30 30 0 20.7000 110.300 2 38 993 20.9000 110.200 TD 30 1000 7 303
1995225N12124 1995 46 WP MM IRVING 1995-08-19 21:00:00 TS 20.9176 109.794 main 0 0 PPPP__________ WP091995 20.7350 109.535 47 -1 21.0277 109.915 3 1001 0 9 20.9053 109.850 2 36 995 21.0876 109.960 TD 30 1000 8 303
1995225N12124 1995 46 WP MM IRVING 1995-08-20 00:00:00 TS 21.1636 109.418 1002 tokyo main 24 0 OOOO__________ jtwc_wp WP091995 21.0000 109.300 45 -1 21.3000 109.500 2 1002 0 0 0 21.2000 109.400 2 34 998 21.3000 109.700 TD 30 1000 8 310
1995225N12124 1995 46 WP MM IRVING 1995-08-20 03:00:00 TS 21.4580 109.114 main 10 0 PPP___________ WP091995 21.2924 109.092 42 -1 21.6324 109.170 2 1003 0 0 21.6148 109.100 2 28 1000 TD 8 320
1995225N12124 1995 46 WP MM IRVING 1995-08-20 06:00:00 TS 21.7500 108.900 1004 tokyo main 0 0 OOO___________ jtwc_wp WP091995 21.6000 108.900 40 -1 22.0000 108.900 2 1004 0 0 0 22.1000 108.900 1 23 1002 6 318
1995225N12124 1995 46 WP MM IRVING 1995-08-20 09:00:00 NR 21.8925 108.700 main 0 0 P_____________ WP091995 21.8925 108.700 37 -1 2 0 0 1 6 321
1995225N12124 1995 46 WP MM IRVING 1995-08-20 12:00:00 NR 22.2000 108.500 main 0 0 O_____________ jtwc_wp WP091995 22.2000 108.500 35 -1 7 330
1995225N12124 1995 46 WP MM IRVING 1995-08-20 15:00:00 NR 22.5350 108.300 main 0 0 P_____________ WP091995 22.5350 108.300 32 -1 8 332
1995225N12124 1995 46 WP MM IRVING 1995-08-20 18:00:00 NR 22.9000 108.100 main 0 0 O_____________ jtwc_wp WP091995 22.9000 108.100 30 -1 8 334
1995225N12124 1995 46 WP MM IRVING 1995-08-20 21:00:00 NR 23.2926 107.900 main 0 0 P_____________ WP091995 23.2926 107.900 27 -1 9 335
1995225N12124 1995 46 WP MM IRVING 1995-08-21 00:00:00 NR 23.7000 107.700 main 0 O_____________ jtwc_wp WP091995 23.7000 107.700 25 -1 9 336

デジタル台風データ・検索

IBTrACS Databaseについて

本データベースは、米国NOAAが公開する1842年以降の世界の熱帯低気圧のベストトラックデータアーカイブInternational Best Track Archive for Climate Stewardship (IBTrACS)を、ウェブで閲覧しやすい形式に変換したものです。

最終更新日:2021-10-08